Time;durP1;ratioP1;P1;durP2;ratioP2;P2;SDS_P1;SDS_P2;PMS_P1;PMS_P2;Temp;Humidity;BMP_temperature;BMP_pressure;BME280_temperature;BME280_humidity;BME280_pressure;Samples;Min_cycle;Max_cycle;Signal;HPM_P1;HPM_P2
2022/06/18 00:01:19;;;;;;;9.73;3.72;;;20.50;99.90;;;;;;4969407;28;263392;-72
2022/06/18 00:03:46;;;;;;;9.63;3.70;;;20.60;99.90;;;;;;5007866;28;20077;-72
2022/06/18 00:06:12;;;;;;;10.90;3.90;;;20.60;99.90;;;;;;4926491;28;207376;-71
2022/06/18 00:08:38;;;;;;;12.25;3.90;;;20.50;99.90;;;;;;4988153;28;20068;-71
2022/06/18 00:13:50;;;;;;;10.95;3.95;;;20.50;99.90;;;;;;4997527;28;20469;-71
2022/06/18 00:16:21;;;;;;;9.52;3.65;;;20.50;99.90;;;;;;4965218;28;279154;-72
2022/06/18 00:18:48;;;;;;;;;;;20.40;99.90;;;;;;5007036;28;20053;-72
2022/06/18 00:21:19;;;;;;;9.23;3.55;;;20.40;99.90;;;;;;4971434;28;257792;-72
2022/06/18 00:23:45;;;;;;;10.48;4.10;;;20.40;99.90;;;;;;5000249;28;20042;-72
2022/06/18 00:26:11;;;;;;;12.23;3.92;;;20.40;99.90;;;;;;4970492;28;165052;-71
2022/06/18 00:28:38;;;;;;;11.63;3.95;;;20.30;99.90;;;;;;5006865;28;20061;-72
2022/06/18 00:31:04;;;;;;;9.45;3.63;;;20.30;99.90;;;;;;4960782;28;246886;-72
2022/06/18 00:33:30;;;;;;;11.50;4.40;;;20.30;99.90;;;;;;5001680;28;20744;-72
2022/06/18 00:36:00;;;;;;;10.27;4.00;;;20.30;99.90;;;;;;4955100;28;250956;-71
2022/06/18 00:38:34;;;;;;;8.70;3.70;;;20.30;99.90;;;;;;4984505;28;20503;-71
2022/06/18 00:41:01;;;;;;;9.02;4.07;;;20.20;99.90;;;;;;4962183;28;272355;-72
2022/06/18 00:43:35;;;;;;;10.23;3.80;;;20.20;99.90;;;;;;5002071;28;20048;-71
2022/06/18 00:46:10;;;;;;;11.07;4.18;;;20.20;99.90;;;;;;4955778;28;262594;-72
2022/06/18 00:49:02;;;;;;;11.13;4.20;;;20.20;99.90;;;;;;4991447;28;20057;-72
2022/06/18 00:51:49;;;;;;;10.57;4.30;;;20.20;99.90;;;;;;4984858;28;119313;-72
2022/06/18 00:54:30;;;;;;;10.98;4.13;;;20.20;99.90;;;;;;4995425;28;266194;-72
2022/06/18 00:57:07;;;;;;;;;;;20.20;99.90;;;;;;4957473;28;206685;-71
2022/06/18 00:59:46;;;;;;;13.80;4.07;;;20.20;99.90;;;;;;4990751;28;92675;-72
2022/06/18 01:02:18;;;;;;;10.80;4.38;;;20.10;99.90;;;;;;4955534;28;204085;-72
2022/06/18 01:04:45;;;;;;;10.77;4.72;;;20.10;99.90;;;;;;4973341;28;116329;-71
2022/06/18 01:07:27;;;;;;;10.20;4.22;;;20.10;99.90;;;;;;4958509;28;212651;-72
2022/06/18 01:09:53;;;;;;;10.77;4.78;;;20.10;99.90;;;;;;5008267;28;200370;-71
2022/06/18 01:12:21;;;;;;;11.65;4.95;;;20.00;99.90;;;;;;4979783;28;210861;-72
2022/06/18 01:14:56;;;;;;;13.70;5.75;;;20.00;99.90;;;;;;4991087;28;89763;-71
2022/06/18 01:17:22;;;;;;;11.80;4.80;;;20.00;99.90;;;;;;4974951;28;164734;-71
2022/06/18 01:19:50;;;;;;;10.13;4.75;;;19.90;99.90;;;;;;4995917;28;244075;-71
2022/06/18 01:22:22;;;;;;;10.45;4.85;;;19.90;99.90;;;;;;4993233;28;213587;-72
2022/06/18 01:24:48;;;;;;;17.70;5.30;;;19.90;99.90;;;;;;4993785;28;171955;-72
2022/06/18 01:27:15;;;;;;;9.40;5.25;;;19.80;99.90;;;;;;4965943;28;207181;-72
2022/06/18 01:29:41;;;;;;;12.05;5.78;;;19.80;99.90;;;;;;4996177;28;275753;-72
2022/06/18 01:32:11;;;;;;;11.55;6.10;;;19.80;99.90;;;;;;4967076;28;207509;-72
2022/06/18 01:34:38;;;;;;;11.32;6.13;;;19.70;99.90;;;;;;5020175;28;87315;-71
2022/06/18 01:37:06;;;;;;;14.07;6.22;;;19.70;99.90;;;;;;4958572;28;206756;-72
2022/06/18 01:39:36;;;;;;;14.40;5.70;;;19.70;99.90;;;;;;4996862;28;254177;-72
2022/06/18 01:42:11;;;;;;;13.50;6.13;;;19.60;99.90;;;;;;4989730;28;149980;-72
2022/06/18 01:44:38;;;;;;;12.65;6.03;;;19.60;99.90;;;;;;4992016;28;260693;-72
2022/06/18 01:47:06;;;;;;;11.65;6.22;;;19.60;99.90;;;;;;4975190;28;208415;-72
2022/06/18 01:50:02;;;;;;;12.60;6.05;;;19.50;99.90;;;;;;4984002;28;170765;-72
2022/06/18 01:52:33;;;;;;;13.10;6.20;;;19.50;99.90;;;;;;4967437;28;207401;-72
2022/06/18 01:55:03;;;;;;;11.90;6.70;;;19.40;99.90;;;;;;5001089;28;268311;-72
2022/06/18 01:57:33;;;;;;;14.60;6.57;;;19.40;99.90;;;;;;4961122;28;206325;-71
2022/06/18 02:00:08;;;;;;;12.50;6.85;;;19.40;99.90;;;;;;4998417;28;260185;-72
2022/06/18 02:02:35;;;;;;;12.32;6.60;;;19.40;99.90;;;;;;4986193;28;208917;-72
2022/06/18 02:05:02;;;;;;;15.38;7.25;;;19.40;99.90;;;;;;4983447;28;110677;-71
2022/06/18 02:07:28;;;;;;;14.52;6.88;;;19.40;99.90;;;;;;4961470;28;193184;-72
2022/06/18 02:10:01;;;;;;;11.32;6.93;;;19.40;99.90;;;;;;4994187;28;258515;-71
2022/06/18 02:12:33;;;;;;;13.98;6.93;;;19.40;99.90;;;;;;4962813;28;205459;-72
2022/06/18 02:15:09;;;;;;;17.58;7.45;;;19.30;99.90;;;;;;5000134;28;273855;-72
2022/06/18 02:17:36;;;;;;;12.15;6.80;;;19.30;99.90;;;;;;4961422;28;207233;-71
2022/06/18 02:20:12;;;;;;;14.80;7.55;;;19.20;99.90;;;;;;5010948;28;262349;-70
2022/06/18 02:22:45;;;;;;;13.60;7.32;;;19.20;99.90;;;;;;4985961;28;205941;-71
2022/06/18 02:25:14;;;;;;;12.73;6.70;;;19.10;99.90;;;;;;5020224;28;157016;-70
2022/06/18 02:27:42;;;;;;;13.98;7.10;;;19.10;99.90;;;;;;4983573;28;140187;-71
2022/06/18 02:30:20;;;;;;;12.63;7.38;;;19.00;99.90;;;;;;5001245;23;260475;-81
2022/06/18 02:33:12;;;;;;;13.02;7.13;;;19.00;99.90;;;;;;4929276;28;210674;-80
2022/06/18 02:35:38;;;;;;;12.32;7.13;;;18.90;99.90;;;;;;4905756;28;221239;-80
2022/06/18 02:38:15;;;;;;;13.85;7.45;;;18.90;99.90;;;;;;4956375;28;20046;-79
2022/06/18 02:40:41;;;;;;;15.55;7.80;;;18.80;99.90;;;;;;4938133;28;205287;-80
2022/06/18 02:43:08;;;;;;;13.90;7.47;;;18.80;99.90;;;;;;4966924;28;20046;-80
2022/06/18 02:45:35;;;;;;;14.83;7.60;;;18.70;99.90;;;;;;4938335;28;211875;-80
2022/06/18 02:48:02;;;;;;;13.75;8.02;;;18.70;99.90;;;;;;5002699;28;20050;-80
2022/06/18 02:50:34;;;;;;;16.70;8.55;;;18.70;99.90;;;;;;4923148;28;208949;-80
2022/06/18 02:53:04;;;;;;;12.98;7.47;;;18.70;99.90;;;;;;4982175;28;20073;-80
2022/06/18 02:55:37;;;;;;;14.02;8.45;;;18.60;99.90;;;;;;4912596;28;218759;-78
2022/06/18 02:58:03;;;;;;;15.93;8.05;;;18.60;99.90;;;;;;4988010;28;20154;-79
2022/06/18 03:00:29;;;;;;;13.03;7.80;;;18.60;99.90;;;;;;4915765;28;207018;-81
2022/06/18 03:02:55;;;;;;;17.73;9.23;;;18.60;99.90;;;;;;4974600;28;20495;-79
2022/06/18 03:05:25;;;;;;;15.95;9.23;;;18.50;99.90;;;;;;4899309;28;212020;-79
2022/06/18 03:07:54;;;;;;;18.02;9.70;;;18.50;99.90;;;;;;4975723;28;20046;-79
2022/06/18 03:13:06;;;;;;;18.75;9.98;;;18.50;99.90;;;;;;4973828;28;20076;-80
2022/06/18 03:15:32;;;;;;;17.43;9.23;;;18.50;99.90;;;;;;4923152;28;211571;-80
2022/06/18 03:17:59;;;;;;;20.60;10.85;;;18.40;99.90;;;;;;4958363;28;20057;-80
2022/06/18 03:20:49;;;;;;;16.50;8.98;;;18.50;99.90;;;;;;4909301;28;244547;-81
2022/06/18 03:23:17;;;;;;;22.13;10.13;;;18.50;99.90;;;;;;4984535;28;20054;-79
2022/06/18 03:25:44;;;;;;;16.30;9.77;;;18.50;99.90;;;;;;4903316;28;205296;-80
2022/06/18 03:28:14;;;;;;;18.30;10.20;;;18.50;99.90;;;;;;4975677;28;20047;-80
2022/06/18 03:30:41;;;;;;;17.10;9.77;;;18.50;99.90;;;;;;4878238;28;207572;-80
2022/06/18 03:33:09;;;;;;;16.67;9.85;;;18.40;99.90;;;;;;4954560;28;20054;-80
2022/06/18 03:35:35;;;;;;;16.17;10.63;;;18.40;99.90;;;;;;4895332;28;206701;-80
2022/06/18 03:38:01;;;;;;;18.85;10.70;;;18.40;99.90;;;;;;4954043;28;20057;-80
2022/06/18 03:40:29;;;;;;;18.48;10.57;;;18.40;99.90;;;;;;4893960;28;205578;-80
2022/06/18 03:42:55;;;;;;;18.25;12.15;;;18.40;99.90;;;;;;4937432;28;20489;-80
2022/06/18 03:45:21;;;;;;;21.52;11.77;;;18.40;99.90;;;;;;4933226;28;206745;-80
2022/06/18 03:47:48;;;;;;;16.70;11.20;;;18.30;99.90;;;;;;4962475;28;20062;-79
2022/06/18 03:50:17;;;;;;;21.58;11.63;;;18.30;99.90;;;;;;4949684;28;224126;-80
2022/06/18 03:52:44;;;;;;;20.63;11.45;;;18.30;99.90;;;;;;4922143;28;208393;-79
2022/06/18 03:55:13;;;;;;;20.48;11.30;;;18.30;99.90;;;;;;4938448;28;135384;-79
2022/06/18 03:57:39;;;;;;;21.75;12.15;;;18.30;99.90;;;;;;4887509;28;205895;-79
2022/06/18 04:00:10;;;;;;;22.80;12.23;;;18.30;99.90;;;;;;4947943;28;238779;-79
2022/06/18 04:02:36;;;;;;;21.63;12.18;;;18.20;99.90;;;;;;4912229;28;204123;-79
2022/06/18 04:05:02;;;;;;;20.38;11.73;;;18.20;99.90;;;;;;4936346;28;117066;-79
2022/06/18 04:07:28;;;;;;;19.77;11.23;;;18.20;99.90;;;;;;4898669;28;213096;-79
2022/06/18 04:09:56;;;;;;;19.95;12.18;;;18.20;99.90;;;;;;4951299;28;20573;-79
2022/06/18 04:12:22;;;;;;;18.10;11.23;;;18.30;99.90;;;;;;4912194;28;178635;-79
2022/06/18 04:14:48;;;;;;;23.95;12.65;;;18.20;99.90;;;;;;4947524;28;268322;-79
2022/06/18 04:17:16;;;;;;;22.23;12.27;;;18.30;99.90;;;;;;4918937;28;205120;-81
2022/06/18 04:19:43;;;;;;;24.35;11.50;;;18.30;99.90;;;;;;4954654;28;75708;-79
2022/06/18 04:22:09;;;;;;;26.35;13.30;;;18.30;99.90;;;;;;4937792;28;208004;-79
2022/06/18 04:24:35;;;;;;;22.83;12.25;;;18.30;99.90;;;;;;4957860;28;165010;-79
2022/06/18 04:27:02;;;;;;;23.60;11.73;;;18.30;99.90;;;;;;4922211;28;211651;-78
2022/06/18 04:29:28;;;;;;;25.60;12.85;;;18.30;99.90;;;;;;4951959;28;67551;-79
2022/06/18 04:31:54;;;;;;;31.85;13.93;;;18.30;99.90;;;;;;4920915;28;205134;-79
2022/06/18 04:34:20;;;;;;;24.73;13.90;;;18.40;99.90;;;;;;4941663;28;262541;-79
2022/06/18 04:36:46;;;;;;;28.67;13.90;;;18.40;99.90;;;;;;4914713;28;193793;-79
2022/06/18 04:39:13;;;;;;;25.67;15.02;;;18.40;99.90;;;;;;4944361;28;254549;-79
2022/06/18 04:41:40;;;;;;;28.40;14.32;;;18.40;99.90;;;;;;4914771;28;205798;-79
2022/06/18 04:44:06;;;;;;;25.45;14.90;;;18.40;99.90;;;;;;4928816;28;267733;-79
2022/06/18 04:46:32;;;;;;;25.70;13.63;;;18.40;99.90;;;;;;4911342;28;205221;-79
2022/06/18 04:48:59;;;;;;;22.67;13.75;;;18.40;99.90;;;;;;4952664;28;20547;-80
2022/06/18 04:51:25;;;;;;;25.05;13.43;;;18.40;99.90;;;;;;4900767;28;205213;-80
2022/06/18 04:53:51;;;;;;;25.10;14.98;;;18.50;99.90;;;;;;4954252;28;20055;-79
2022/06/18 04:56:17;;;;;;;26.13;14.90;;;18.50;99.90;;;;;;4903958;28;212486;-78
2022/06/18 04:58:44;;;;;;;27.33;15.88;;;18.50;99.90;;;;;;4978426;28;20069;-79
2022/06/18 05:01:18;;;;;;;27.05;15.93;;;18.50;99.90;;;;;;4908719;28;202721;-80
2022/06/18 05:03:44;;;;;;;31.52;16.35;;;18.50;99.90;;;;;;4970109;28;20055;-79
2022/06/18 05:06:13;;;;;;;28.52;15.45;;;18.50;99.90;;;;;;4875730;28;221351;-78
2022/06/18 05:08:39;;;;;;;27.55;15.60;;;18.50;99.90;;;;;;4955141;28;20405;-80
2022/06/18 05:11:05;;;;;;;28.63;16.45;;;18.50;99.90;;;;;;4907283;28;202846;-80
2022/06/18 05:13:32;;;;;;;26.85;14.98;;;18.50;99.90;;;;;;4950296;28;20062;-80
2022/06/18 05:15:59;;;;;;;30.63;17.02;;;18.50;99.90;;;;;;4909803;28;205990;-79
2022/06/18 05:18:29;;;;;;;26.88;16.30;;;18.60;99.90;;;;;;4969745;28;20059;-80
2022/06/18 05:20:55;;;;;;;28.60;15.98;;;18.60;99.90;;;;;;4914548;28;297802;-80
2022/06/18 05:23:21;;;;;;;27.60;15.82;;;18.60;99.90;;;;;;4955308;28;20055;-79
2022/06/18 05:25:55;;;;;;;27.52;15.85;;;18.70;99.90;;;;;;4918600;28;210878;-80
2022/06/18 05:28:21;;;;;;;31.55;16.90;;;18.70;99.90;;;;;;4959762;28;20530;-79
2022/06/18 05:30:48;;;;;;;30.60;16.50;;;18.70;99.90;;;;;;4910424;28;199504;-80
2022/06/18 05:33:14;;;;;;;25.17;16.05;;;18.80;99.90;;;;;;4966660;28;20058;-79
2022/06/18 05:35:42;;;;;;;33.20;16.38;;;18.80;99.90;;;;;;4917407;28;186808;-80
2022/06/18 05:38:14;;;;;;;30.08;16.25;;;18.80;99.90;;;;;;4940847;28;20050;-79
2022/06/18 05:40:41;;;;;;;31.52;16.23;;;18.80;99.90;;;;;;4896747;28;209147;-80
2022/06/18 05:43:07;;;;;;;30.92;16.98;;;18.90;99.90;;;;;;4943787;28;20069;-79
2022/06/18 05:45:33;;;;;;;28.58;15.80;;;18.90;99.90;;;;;;4889280;28;205943;-79
2022/06/18 05:47:59;;;;;;;31.42;16.55;;;18.90;99.90;;;;;;4955002;28;20426;-80
2022/06/18 05:50:25;;;;;;;28.77;15.70;;;19.00;99.90;;;;;;4918977;28;184565;-80
2022/06/18 05:52:51;;;;;;;30.90;15.77;;;19.10;99.90;;;;;;4972333;28;20070;-79
2022/06/18 05:55:20;;;;;;;30.02;16.10;;;19.20;99.90;;;;;;4912400;28;210188;-79
2022/06/18 05:57:56;;;;;;;26.42;16.10;;;19.30;99.90;;;;;;4951854;28;20099;-79
2022/06/18 06:00:26;;;;;;;29.23;15.70;;;19.40;99.90;;;;;;4900657;28;218353;-79
2022/06/18 06:02:52;;;;;;;24.08;14.73;;;19.50;99.90;;;;;;4953240;28;20061;-79
2022/06/18 06:05:18;;;;;;;32.40;15.77;;;19.50;99.90;;;;;;4875717;28;206761;-79
2022/06/18 06:07:44;;;;;;;32.22;15.70;;;19.60;99.90;;;;;;4959033;28;20142;-80
2022/06/18 06:13:24;;;;;;;28.73;14.77;;;19.90;99.90;;;;;;4938665;28;204926;-79
2022/06/18 06:15:51;;;;;;;29.23;14.68;;;20.10;99.90;;;;;;4894838;28;212700;-80
2022/06/18 06:18:19;;;;;;;25.52;13.68;;;20.30;99.90;;;;;;4968907;28;20059;-80
2022/06/18 06:20:49;;;;;;;27.00;13.05;;;20.50;99.90;;;;;;4905563;28;208287;-80
2022/06/18 06:23:15;;;;;;;30.92;13.15;;;20.80;99.90;;;;;;4948246;28;20055;-80
2022/06/18 06:25:43;;;;;;;29.60;12.73;;;20.90;99.90;;;;;;4891941;28;208437;-80
2022/06/18 06:28:14;;;;;;;19.13;11.38;;;21.00;99.90;;;;;;4957538;28;20085;-80
2022/06/18 06:30:41;;;;;;;22.00;11.57;;;21.20;99.90;;;;;;4897835;28;213479;-79
2022/06/18 06:33:08;;;;;;;24.60;11.60;;;21.30;99.90;;;;;;4953971;28;20051;-80
2022/06/18 06:35:34;;;;;;;22.13;11.03;;;21.30;99.90;;;;;;4916500;28;206040;-81
2022/06/18 06:38:02;;;;;;;24.25;9.65;;;21.30;99.90;;;;;;4947733;28;20054;-80
2022/06/18 06:40:29;;;;;;;20.87;9.43;;;21.40;99.90;;;;;;4915321;28;136626;-80
2022/06/18 06:42:56;;;;;;;21.25;10.10;;;21.60;99.90;;;;;;4938707;28;20054;-81
2022/06/18 06:45:31;;;;;;;19.17;10.07;;;21.80;99.90;;;;;;4913875;28;253216;-81
2022/06/18 06:47:58;;;;;;;22.98;9.23;;;22.10;99.90;;;;;;4963278;28;20130;-79
2022/06/18 06:50:26;;;;;;;21.75;9.73;;;22.10;99.90;;;;;;4911064;28;201994;-80
2022/06/18 06:52:53;;;;;;;21.88;9.20;;;22.40;99.90;;;;;;4942853;28;20559;-81
2022/06/18 06:58:08;;;;;;;21.80;7.75;;;22.70;99.90;;;;;;4951646;28;20066;-80
2022/06/18 07:00:40;;;;;;;22.55;7.97;;;22.80;99.90;;;;;;4906220;28;222124;-79
2022/06/18 07:03:10;;;;;;;17.13;7.13;;;23.00;99.90;;;;;;4961617;28;20058;-79
2022/06/18 07:05:37;;;;;;;18.77;6.85;;;23.20;99.90;;;;;;4894568;28;204646;-79
2022/06/18 07:08:03;;;;;;;21.92;6.97;;;23.30;99.90;;;;;;4967341;28;21029;-77
2022/06/18 07:10:29;;;;;;;18.03;6.27;;;23.40;99.90;;;;;;4912715;28;210709;-79
2022/06/18 07:12:55;;;;;;;17.33;6.03;;;23.50;99.90;;;;;;4968630;28;20074;-79
2022/06/18 07:15:21;;;;;;;16.63;5.93;;;23.60;99.90;;;;;;4909085;28;253056;-79
2022/06/18 07:17:47;;;;;;;15.93;5.82;;;23.70;99.90;;;;;;4947484;28;20062;-79
2022/06/18 07:20:17;;;;;;;21.55;6.13;;;24.00;99.90;;;;;;4915105;28;257227;-79
2022/06/18 07:22:43;;;;;;;17.95;6.13;;;24.20;99.90;;;;;;4930785;28;97517;-79
2022/06/18 07:25:11;;;;;;;15.77;5.28;;;24.40;99.90;;;;;;4935405;28;20752;-79
2022/06/18 07:27:38;;;;;;;16.02;5.15;;;24.70;99.90;;;;;;4915190;28;96920;-79
2022/06/18 07:30:07;;;;;;;16.45;5.43;;;24.90;99.90;;;;;;4952189;28;86202;-79
2022/06/18 07:32:33;;;;;;;17.67;5.20;;;24.90;99.40;;;;;;4921179;28;212081;-79
2022/06/18 07:34:59;;;;;;;14.35;4.80;;;24.70;99.40;;;;;;4958599;28;257880;-80
2022/06/18 07:37:28;;;;;;;13.88;4.47;;;24.20;99.70;;;;;;4909768;28;214383;-80
2022/06/18 07:39:54;;;;;;;16.17;4.60;;;24.40;99.90;;;;;;4949946;28;167390;-79
2022/06/18 07:42:22;;;;;;;15.00;4.30;;;24.70;99.90;;;;;;4921675;28;209486;-78
2022/06/18 07:44:48;;;;;;;12.50;4.35;;;25.00;99.80;;;;;;4961819;28;20061;-79
2022/06/18 07:47:20;;;;;;;17.13;4.20;;;25.30;99.10;;;;;;4935787;28;207220;-78
2022/06/18 07:49:46;;;;;;;12.85;4.00;;;25.50;97.00;;;;;;4956338;28;152529;-79
2022/06/18 07:52:14;;;;;;;14.52;4.10;;;25.50;98.30;;;;;;4906665;28;210997;-79
2022/06/18 07:54:42;;;;;;;15.75;4.18;;;25.70;98.20;;;;;;4959301;28;37839;-80
2022/06/18 07:57:09;;;;;;;10.93;3.40;;;25.90;97.90;;;;;;4931858;28;209818;-80
2022/06/18 07:59:37;;;;;;;13.57;3.65;;;26.20;97.50;;;;;;4941477;28;64982;-79
2022/06/18 08:02:06;;;;;;;14.20;3.67;;;26.30;97.20;;;;;;4918146;28;226235;-79
2022/06/18 08:04:32;;;;;;;12.18;3.30;;;26.40;96.40;;;;;;4947942;28;223759;-79
2022/06/18 08:06:59;;;;;;;16.98;4.40;;;26.50;95.30;;;;;;4903148;28;210002;-79
2022/06/18 08:09:25;;;;;;;15.07;3.85;;;26.20;95.40;;;;;;4945245;28;273802;-79
2022/06/18 08:11:51;;;;;;;13.95;3.63;;;26.20;96.70;;;;;;4913235;28;203507;-79
2022/06/18 08:14:17;;;;;;;14.53;3.70;;;26.50;96.60;;;;;;4951773;28;268898;-79
2022/06/18 08:16:44;;;;;;;13.20;3.92;;;26.80;96.10;;;;;;4914895;28;205106;-79
2022/06/18 08:19:12;;;;;;;12.13;3.85;;;27.00;95.90;;;;;;4958001;28;260364;-80
2022/06/18 08:21:41;;;;;;;12.57;3.95;;;26.90;94.60;;;;;;4923575;28;206205;-80
2022/06/18 08:24:17;;;;;;;12.55;4.53;;;26.80;94.40;;;;;;4934725;28;251609;-79
2022/06/18 08:26:44;;;;;;;11.25;3.65;;;26.20;94.30;;;;;;4920199;28;203825;-80
2022/06/18 08:29:17;;;;;;;14.40;3.85;;;26.10;96.20;;;;;;4945279;28;252402;-80
2022/06/18 08:31:45;;;;;;;13.45;3.70;;;26.30;96.40;;;;;;4912339;28;215227;-79
2022/06/18 08:34:11;;;;;;;16.38;3.67;;;26.60;96.10;;;;;;4946312;28;267921;-80
2022/06/18 08:36:38;;;;;;;12.77;3.83;;;26.90;95.70;;;;;;4902153;28;205600;-79
2022/06/18 08:39:05;;;;;;;12.50;3.30;;;26.90;95.60;;;;;;4943064;28;266842;-80
2022/06/18 08:42:00;;;;;;;14.95;3.53;;;27.40;95.80;;;;;;4914411;28;215055;-79
2022/06/18 08:44:29;;;;;;;13.07;3.88;;;27.40;93.70;;;;;;4934860;28;256080;-79
2022/06/18 08:47:04;;;;;;;11.90;3.28;;;27.10;94.00;;;;;;4920795;28;204164;-80
2022/06/18 08:50:04;;;;;;;12.73;3.13;;;26.90;95.00;;;;;;4950156;28;131979;-79
2022/06/18 08:52:59;;;;;;;14.43;3.25;;;27.40;94.30;;;;;;4881366;28;213240;-79
2022/06/18 08:55:35;;;;;;;12.60;3.30;;;27.60;92.80;;;;;;4925706;28;207420;-80
2022/06/18 08:58:24;;;;;;;12.73;3.45;;;27.50;91.60;;;;;;4966125;28;20046;-80
2022/06/18 09:00:53;;;;;;;13.27;3.03;;;27.10;93.50;;;;;;4919693;28;207536;-79
2022/06/18 09:03:34;;;;;;;10.00;3.00;;;27.50;94.00;;;;;;4951182;28;20067;-79
2022/06/18 09:06:41;;;;;;;9.48;3.00;;;27.40;91.80;;;;;;4891334;28;209500;-79
2022/06/18 09:09:19;;;;;;;12.48;3.20;;;27.60;93.50;;;;;;4946724;28;229662;-79
2022/06/18 09:12:04;;;;;;;10.20;2.85;;;27.80;93.60;;;;;;4905650;28;208437;-79
2022/06/18 09:14:50;;;;;;;11.88;2.97;;;28.10;92.80;;;;;;4927924;28;241138;-79
2022/06/18 09:17:20;;;;;;;9.23;2.50;;;28.40;90.90;;;;;;4906307;28;208664;-79
2022/06/18 09:19:58;;;;;;;9.35;2.20;;;28.70;91.10;;;;;;4954669;28;214631;-79
2022/06/18 09:22:26;;;;;;;9.65;2.05;;;28.60;90.50;;;;;;4919418;28;205378;-80
2022/06/18 09:25:00;;;;;;;10.75;2.00;;;28.80;90.10;;;;;;4948787;28;52288;-77
2022/06/18 09:27:44;;;;;;;9.73;2.30;;;28.70;86.80;;;;;;4904933;28;199871;-78
2022/06/18 09:30:16;;;;;;;9.43;2.08;;;28.40;85.50;;;;;;4936189;28;243081;-78
2022/06/18 09:33:04;;;;;;;11.00;2.22;;;28.40;90.60;;;;;;4897148;28;206352;-79
2022/06/18 09:35:40;;;;;;;9.88;2.20;;;28.40;89.20;;;;;;4893174;28;206729;-78
2022/06/18 09:38:22;;;;;;;7.95;1.77;;;28.50;84.90;;;;;;4954617;28;20043;-79
2022/06/18 09:40:52;;;;;;;9.40;2.00;;;28.80;89.90;;;;;;4885980;28;209646;-79
2022/06/18 09:43:37;;;;;;;8.03;1.80;;;29.10;86.40;;;;;;4948349;28;20153;-79
2022/06/18 09:46:09;;;;;;;8.48;1.88;;;29.60;85.00;;;;;;4923679;28;209935;-79
2022/06/18 09:48:37;;;;;;;8.68;1.80;;;29.40;81.50;;;;;;4983159;28;20503;-79
2022/06/18 09:51:29;;;;;;;8.20;1.63;;;29.50;86.10;;;;;;4908938;28;257100;-79
2022/06/18 09:54:00;;;;;;;7.97;1.60;;;29.80;84.00;;;;;;4982182;28;20058;-78
2022/06/18 09:56:43;;;;;;;6.45;1.52;;;30.10;86.40;;;;;;4919368;28;222554;-79
2022/06/18 09:59:19;;;;;;;8.60;1.75;;;30.30;84.60;;;;;;4946276;28;258022;-78
2022/06/18 10:01:49;;;;;;;8.82;1.67;;;30.50;85.00;;;;;;4920601;28;207144;-78
2022/06/18 10:07:25;;;;;;;8.13;1.52;;;30.40;81.00;;;;;;4923346;28;214413;-79
2022/06/18 10:10:26;;;;;;;8.05;1.90;;;30.30;80.20;;;;;;4938545;28;97137;-79
2022/06/18 10:12:56;;;;;;;6.70;1.42;;;29.90;80.60;;;;;;4882291;29;220017;-78
2022/06/18 10:15:25;;;;;;;9.13;1.60;;;29.70;80.90;;;;;;4893883;28;214982;-78
2022/06/18 10:18:18;;;;;;;9.02;1.70;;;30.00;82.20;;;;;;4949333;28;20877;-81
2022/06/18 10:21:06;;;;;;;7.35;1.60;;;30.60;79.00;;;;;;4934157;23;166985;-71
2022/06/18 10:23:49;;;;;;;7.65;1.50;;;31.10;77.60;;;;;;5029044;28;20116;-71
2022/06/18 10:26:54;;;;;;;8.45;1.75;;;31.40;77.30;;;;;;4954546;28;268963;-68
2022/06/18 10:30:07;;;;;;;12.32;1.50;;;31.70;76.10;;;;;;4986799;28;270565;-72
2022/06/18 10:32:34;;;;;;;9.38;1.80;;;31.90;69.80;;;;;;4921530;28;145559;-69
2022/06/18 10:35:11;;;;;;;6.40;1.33;;;31.40;70.70;;;;;;4990578;28;253850;-71
2022/06/18 10:37:44;;;;;;;8.57;1.65;;;31.10;70.20;;;;;;4962889;28;211889;-72
2022/06/18 10:40:25;;;;;;;7.97;1.60;;;30.90;69.10;;;;;;5003948;28;253829;-71
2022/06/18 10:43:26;;;;;;;8.20;1.60;;;31.10;68.80;;;;;;4937802;28;206489;-71
2022/06/18 10:45:56;;;;;;;11.25;1.77;;;31.30;72.50;;;;;;4963246;28;260568;-71
2022/06/18 10:48:26;;;;;;;9.65;1.65;;;31.60;69.80;;;;;;4994488;28;20529;-71
2022/06/18 10:50:55;;;;;;;8.18;1.67;;;31.50;70.80;;;;;;4945811;28;104763;-72
2022/06/18 10:53:26;;;;;;;7.22;1.45;;;31.50;69.10;;;;;;5001820;28;20054;-72
2022/06/18 10:56:00;;;;;;;6.90;1.40;;;31.70;69.10;;;;;;4955638;28;266789;-71
2022/06/18 10:58:26;;;;;;;8.07;1.60;;;31.40;67.80;;;;;;5003445;28;20054;-71
2022/06/18 11:00:54;;;;;;;7.75;1.45;;;31.80;69.20;;;;;;4938383;28;262559;-70
2022/06/18 11:03:25;;;;;;;8.73;1.30;;;32.20;65.10;;;;;;5014053;28;20058;-71
2022/06/18 11:05:51;;;;;;;7.15;1.38;;;32.20;63.80;;;;;;4923838;28;211210;-71
2022/06/18 11:08:22;;;;;;;6.82;1.30;;;32.00;62.70;;;;;;4985828;28;20053;-70
2022/06/18 11:11:01;;;;;;;6.88;1.38;;;31.50;64.80;;;;;;4949994;28;271622;-72
2022/06/18 11:13:35;;;;;;;6.57;1.30;;;31.70;63.50;;;;;;5005700;28;20058;-71
2022/06/18 11:16:13;;;;;;;11.45;1.55;;;31.80;66.10;;;;;;4943359;28;213037;-69
2022/06/18 11:19:00;;;;;;;6.57;1.17;;;32.20;65.00;;;;;;4997068;28;20360;-70
2022/06/18 11:21:34;;;;;;;5.60;1.02;;;32.30;63.60;;;;;;4956450;28;206752;-70
2022/06/18 11:24:20;;;;;;;8.07;1.60;;;32.40;65.20;;;;;;5014984;28;20037;-71
2022/06/18 11:26:49;;;;;;;7.40;1.40;;;32.80;64.20;;;;;;4932640;28;212034;-71
2022/06/18 11:29:42;;;;;;;6.67;1.33;;;32.70;61.70;;;;;;4984458;28;262373;-68
2022/06/18 11:32:19;;;;;;;8.45;1.20;;;32.20;63.50;;;;;;4918368;28;206013;-70
2022/06/18 11:34:51;;;;;;;6.97;1.40;;;32.40;63.80;;;;;;4990041;28;245457;-70
2022/06/18 11:37:26;;;;;;;7.35;1.17;;;32.40;63.00;;;;;;4955662;28;142852;-70
2022/06/18 11:40:03;;;;;;;8.25;1.33;;;33.10;63.90;;;;;;4995434;28;181426;-69
2022/06/18 11:42:35;;;;;;;6.63;1.30;;;33.20;62.60;;;;;;4966418;28;108367;-70
2022/06/18 11:45:19;;;;;;;6.97;1.13;;;32.90;62.70;;;;;;4985114;28;260940;-69
2022/06/18 11:48:00;;;;;;;9.48;1.50;;;32.40;61.60;;;;;;4976264;28;206501;-70
2022/06/18 11:50:31;;;;;;;6.70;1.25;;;31.90;61.60;;;;;;4954448;28;265218;-69
2022/06/18 11:53:10;;;;;;;5.75;1.27;;;31.00;62.90;;;;;;5005255;28;20376;-70
2022/06/18 11:55:43;;;;;;;8.30;1.25;;;30.80;64.70;;;;;;4956065;28;257953;-70
2022/06/18 11:58:19;;;;;;;7.88;1.42;;;30.50;66.40;;;;;;4999947;28;20097;-70
2022/06/18 12:01:16;;;;;;;5.15;1.17;;;30.50;67.80;;;;;;4941879;28;260589;-71
2022/06/18 12:03:52;;;;;;;8.27;1.42;;;31.10;67.80;;;;;;4990798;28;20060;-70
2022/06/18 12:06:34;;;;;;;7.57;1.40;;;31.40;65.80;;;;;;4926583;28;264326;-70
2022/06/18 12:09:01;;;;;;;7.00;1.20;;;31.70;65.90;;;;;;4998277;28;20508;-70
2022/06/18 12:11:51;;;;;;;6.72;1.20;;;31.90;65.50;;;;;;4913973;28;217901;-70
2022/06/18 12:14:33;;;;;;;9.25;1.30;;;32.10;62.70;;;;;;4977231;28;250385;-70
2022/06/18 12:17:24;;;;;;;6.82;1.25;;;32.30;64.30;;;;;;4972450;28;212481;-70
2022/06/18 12:20:11;;;;;;;6.75;1.10;;;32.40;61.20;;;;;;4992219;28;20322;-71
2022/06/18 12:22:58;;;;;;;8.73;1.45;;;32.10;62.80;;;;;;4943070;28;206126;-70
2022/06/18 12:25:43;;;;;;;6.25;1.20;;;32.20;63.30;;;;;;4940503;28;111787;-69
2022/06/18 12:28:09;;;;;;;4.50;0.95;;;31.70;63.40;;;;;;5011851;28;20050;-69
2022/06/18 12:30:45;;;;;;;6.10;1.05;;;30.80;63.70;;;;;;4940934;28;256307;-71
2022/06/18 12:33:21;;;;;;;7.55;1.10;;;30.40;64.30;;;;;;4988649;28;20073;-69
2022/06/18 12:36:02;;;;;;;6.10;1.10;;;30.10;66.10;;;;;;4944340;28;255595;-70
2022/06/18 12:38:38;;;;;;;4.65;1.00;;;29.70;67.00;;;;;;4998199;28;20061;-69
2022/06/18 12:41:39;;;;;;;4.13;0.95;;;29.60;67.70;;;;;;4934936;28;257894;-71
2022/06/18 12:44:17;;;;;;;5.03;0.90;;;29.80;70.20;;;;;;4968986;28;46875;-68
2022/06/18 12:46:55;;;;;;;6.32;1.20;;;29.60;68.50;;;;;;4934887;28;207275;-70
2022/06/18 12:49:34;;;;;;;5.57;1.08;;;29.30;70.50;;;;;;4965965;28;92959;-69
2022/06/18 12:52:47;;;;;;;5.90;1.10;;;29.10;70.40;;;;;;4938874;28;77649;-70
2022/06/18 12:55:16;;;;;;;5.85;1.02;;;28.50;71.60;;;;;;4939468;28;194135;-69
2022/06/18 12:57:59;;;;;;;5.57;1.10;;;28.20;72.40;;;;;;4953833;28;113699;-69
2022/06/18 13:00:34;;;;;;;7.87;1.00;;;28.10;73.10;;;;;;4922474;28;211389;-69
2022/06/18 13:03:38;;;;;;;5.72;1.10;;;28.00;74.50;;;;;;4982869;28;20073;-70
2022/06/18 13:06:29;;;;;;;6.18;1.20;;;28.20;77.20;;;;;;4894134;28;230833;-70
2022/06/18 13:09:30;;;;;;;9.45;1.40;;;28.00;77.40;;;;;;4968502;28;20066;-70
2022/06/18 13:12:25;;;;;;;9.65;1.30;;;27.60;77.90;;;;;;4802453;29;215698;-70